Latest Weather Observations for Kowen Forest

IDN60801

Issued at 12:13 am EST Saturday 17 April 2021 (issued every 10 minutes, with the page automatically refreshed every 10 minutes)

About weather observations | Map of weather stations | Latest weather observations for NSW | Other Formats
Station Details ID: 250071 Name: KOWEN FOREST (PCS) Lat: -35.31 Lon: 149.32 Height: 720.0 m

Portable automatic weather stations (PAWS) are operated by other organisations, such as Fire and Emergency Services, and are included here by agreement. Portable stations may be deployed to a location for a short period and their location may be subject to change without notice. Wind observations from these stations are provided from heights of either three (3) or ten (10) metres above ground level (AGL).

Data from the previous 72 hours. | See also: Recent months for locations in New South Wales
Date/Time
EST
Temp
°C
App
Temp
°C
Dew
Point
°C
Rel
Hum
%
Delta-T
°C
Wind Press
QNH
hPa
Press
MSL
hPa
Rain since
9am
mm
Dir  Spd
km/h
Gust
km/h
Spd
kts
Gust
kts
16/11:50pm 4.2 1.9 2.8 91 0.6 ESE 4 6 2 3 - - 0.0
16/11:40pm 5.5 2.9 3.1 84 1.0 SE 6 9 3 5 - - 0.0
16/11:30pm 6.7 4.1 4.1 83 1.2 ESE 7 9 4 5 - - 0.0
16/11:20pm 7.2 4.7 4.7 84 1.1 ESE 7 9 4 5 - - 0.0
16/11:10pm 7.2 4.3 4.6 83 1.2 ESE 9 9 5 5 - - 0.0
16/11:00pm 7.0 4.1 4.8 86 1.0 ESE 9 11 5 6 - - 0.0
16/10:50pm 7.1 4.2 4.7 85 1.1 ESE 9 11 5 6 - - 0.0
16/10:40pm 7.4 4.5 4.8 83 1.2 ESE 9 11 5 6 - - 0.0
16/10:30pm 7.5 4.6 4.8 83 1.2 ESE 9 13 5 7 - - 0.0
16/10:20pm 7.5 4.6 4.8 83 1.2 SE 9 9 5 5 - - 0.0
16/10:10pm 7.2 4.3 4.9 85 1.1 ESE 9 11 5 6 - - 0.0
16/10:00pm 7.4 4.9 5.0 85 1.1 SE 7 9 4 5 - - 0.0
16/09:50pm 7.8 5.3 5.0 82 1.3 ESE 7 9 4 5 - - 0.0
16/09:40pm 7.8 5.6 5.2 84 1.2 E 6 7 3 4 - - 0.0
16/09:30pm 8.1 5.3 5.1 81 1.4 E 9 11 5 6 - - 0.0
16/09:20pm 8.1 5.3 5.2 82 1.4 E 9 13 5 7 - - 0.0
16/09:10pm 8.3 5.5 5.1 80 1.5 E 9 13 5 7 - - 0.0
16/09:00pm 8.4 5.2 5.1 80 1.5 E 11 13 6 7 - - 0.0
16/08:50pm 8.4 4.8 5.2 80 1.5 E 13 15 7 8 - - 0.0
16/08:40pm 8.5 5.3 5.3 80 1.5 E 11 13 6 7 - - 0.0
16/08:30pm 8.7 5.5 5.3 79 1.6 E 11 15 6 8 - - 0.0
16/08:20pm 8.8 6.0 5.3 79 1.6 ESE 9 13 5 7 - - 0.0
16/08:10pm 9.0 6.3 5.4 78 1.7 - 9 13 5 7 - - 0.0
16/08:00pm 9.1 5.6 5.4 77 1.7 E 13 17 7 9 - - 0.0
16/07:50pm 9.1 5.6 5.5 78 1.7 E 13 20 7 11 - - 0.0
16/07:40pm 9.2 6.1 5.6 78 1.7 E 11 17 6 9 - - 0.0
16/07:30pm 9.4 6.0 5.7 78 1.8 E 13 20 7 11 - - 0.0
16/07:20pm 9.6 6.6 5.9 78 1.8 E 11 15 6 8 - - 0.0
16/07:10pm 9.6 7.4 6.1 79 1.7 - 7 11 4 6 - - 0.0
16/07:00pm 9.8 7.2 6.3 79 1.7 E 9 13 5 7 - - 0.0
16/06:50pm 10.1 7.2 6.4 78 1.8 E 11 19 6 10 - - 0.0
16/06:40pm 10.3 7.4 6.4 77 1.9 E 11 15 6 8 - - 0.0
16/06:30pm 10.5 8.0 6.5 76 2.0 E 9 13 5 7 - - 0.0
16/06:20pm 10.9 7.6 6.6 75 2.1 E 13 17 7 9 - - 0.0
16/06:10pm 11.3 6.9 6.7 73 2.3 ENE 19 20 10 11 - - 0.0
16/06:00pm 11.6 7.1 6.8 72 2.4 ENE 20 24 11 13 - - 0.0
16/05:50pm 12.0 6.7 7.0 71 2.5 ENE 24 26 13 14 - - 0.0
16/05:40pm 12.5 8.0 7.1 69 2.7 ENE 20 24 11 13 - - 0.0
16/05:30pm 13.1 8.2 7.1 67 3.0 ENE 22 26 12 14 - - 0.0
16/05:20pm 14.1 10.2 6.9 62 3.6 NE 17 24 9 13 - - 0.0
16/05:10pm 15.5 12.9 4.1 46 5.5 NNE 7 9 4 5 - - 0.0
16/05:00pm 16.1 13.0 3.5 43 6.0 NNE 9 11 5 6 - - 0.0
16/04:50pm 16.6 13.1 3.4 41 6.3 NNE 11 13 6 7 - - 0.0
16/04:40pm 16.9 13.3 3.2 40 6.6 NNE 11 13 6 7 - - 0.0
16/04:30pm 17.1 13.5 3.1 39 6.7 NNE 11 13 6 7 - - 0.0
16/04:20pm 17.2 13.2 3.1 39 6.7 NNE 13 17 7 9 - - 0.0
16/04:10pm 17.3 13.4 3.5 39 6.7 N 13 15 7 8 - - 0.0
16/04:00pm 17.3 13.0 3.2 39 6.8 N 15 17 8 9 - - 0.0
16/03:50pm 17.4 13.7 4.2 41 6.5 NE 13 15 7 8 - - 0.0
16/03:40pm 18.1 15.0 3.8 38 7.0 N 9 11 5 6 - - 0.0
16/03:30pm 18.2 15.2 4.0 39 7.0 N 9 11 5 6 - - 0.0
16/03:20pm 19.0 16.1 4.5 38 7.2 NNE 9 13 5 7 - - 0.0
16/03:10pm 19.6 17.4 3.1 33 8.0 NNW 4 6 2 3 - - 0.0
16/03:00pm 19.7 17.5 3.4 34 8.0 N 4 4 2 2 - - 0.0
16/02:50pm 19.0 16.7 2.6 33 7.9 WNW 4 7 2 4 - - 0.0
16/02:40pm 18.9 16.4 1.8 32 8.1 NNE 4 7 2 4 - - 0.0
16/02:30pm 18.8 16.1 2.6 34 7.8 NE 6 7 3 4 - - 0.0
16/02:20pm 18.7 16.3 2.4 33 7.8 ENE 4 9 2 5 - - 0.0
16/02:10pm 18.8 16.8 2.5 33 7.8 ESE 2 4 1 2 - - 0.0
16/02:00pm 18.6 15.8 2.0 33 7.8 NW 6 9 3 5 - - 0.0
16/01:50pm 18.8 16.4 2.3 33 7.9 SSW 4 7 2 4 - - 0.0
16/01:40pm 18.1 15.7 2.2 34 7.5 WSW 4 6 2 3 - - 0.0
16/01:30pm 18.2 15.4 1.9 33 7.7 W 6 9 3 5 - - 0.0
16/01:20pm 18.3 15.9 2.0 33 7.7 NNW 4 6 2 3 - - 0.0
16/01:10pm 17.7 14.8 1.5 33 7.5 N 6 7 3 4 - - 0.0
16/01:00pm 17.9 15.0 1.4 33 7.7 S 6 7 3 4 - - 0.0
16/12:50pm 17.6 14.9 2.4 36 7.2 S 6 11 3 6 - - 0.0
16/12:40pm 17.5 14.2 2.3 36 7.2 SSW 9 13 5 7 - - 0.0
16/12:30pm 17.8 14.9 1.4 33 7.6 SSW 6 9 3 5 - - 0.0
16/12:20pm 17.6 14.8 1.8 34 7.4 SE 6 9 3 5 - - 0.0
16/12:10pm 17.2 14.3 1.3 34 7.3 SSW 6 11 3 6 - - 0.0
16/12:00pm 16.6 12.6 0.8 34 7.2 SW 11 13 6 7 - - 0.0
16/11:50am 16.4 13.0 2.1 38 6.7 WSW 9 15 5 8 - - 0.0
16/11:40am 16.3 13.4 1.3 36 6.9 SSE 6 7 3 4 - - 0.0
16/11:30am 16.1 13.0 1.4 37 6.7 SSE 7 11 4 6 - - 0.0
16/11:20am 16.1 12.6 1.2 36 6.8 SSW 9 13 5 7 - - 0.0
16/11:10am 16.1 13.4 3.7 43 6.0 SSE 7 9 4 5 - - 0.0
16/11:00am 16.2 14.1 3.7 43 6.0 E 4 7 2 4 - - 0.0
16/10:50am 15.5 12.8 2.9 42 5.9 SW 6 13 3 7 - - 0.0
16/10:40am 15.1 12.3 5.0 51 4.9 SSW 9 13 5 7 - - 0.0
16/10:30am 14.7 12.0 5.7 55 4.5 SW 9 15 5 8 - - 0.0
16/10:20am 14.8 11.7 5.7 54 4.5 SSW 11 15 6 8 - - 0.0
16/10:10am 14.7 11.9 5.0 52 4.7 SSW 9 11 5 6 - - 0.0
16/10:00am 14.4 11.7 5.5 55 4.4 SSW 9 11 5 6 - - 0.0
16/09:50am 14.0 11.8 6.2 59 3.9 SW 7 11 4 6 - - 0.0
16/09:40am 13.6 11.4 6.2 61 3.7 SSW 7 11 4 6 - - 0.0
16/09:30am 13.5 11.9 6.2 61 3.6 SW 4 6 2 3 - - 0.0
16/09:20am 12.7 10.6 5.9 63 3.3 SSW 6 7 3 4 - - 0.0
16/09:10am 12.1 10.4 5.9 66 3.0 SSW 4 6 2 3 - - 0.0
16/09:00am 10.9 9.6 6.0 72 2.4 SW 2 4 1 2 - - 0.0
16/08:50am 9.2 7.4 5.5 78 1.8 SSW 4 4 2 2 - - 0.0
16/08:40am 8.0 6.1 4.9 81 1.4 W 4 4 2 2 - - 0.0
16/08:30am 7.5 5.2 4.7 82 1.3 SW 6 7 3 4 - - 0.0
16/08:20am 7.3 4.8 4.9 85 1.1 SSW 7 7 4 4 - - 0.0
16/08:10am 7.2 5.3 4.7 84 1.1 SW 4 7 2 4 - - 0.0
16/08:00am 6.1 4.1 4.4 89 0.8 E 4 4 2 2 - - 0.0
16/07:50am 5.2 3.1 3.7 90 0.7 ENE 4 6 2 3 - - 0.0
16/07:40am 4.7 2.6 3.8 94 0.4 NNE 4 6 2 3 - - 0.0
16/07:30am 3.6 1.3 2.6 93 0.4 NNW 4 6 2 3 - - 0.0
16/07:20am 2.7 0.6 1.8 94 0.4 ENE 2 2 1 1 - - 0.0
16/07:10am 1.1 -1.6 0.2 94 0.3 N 4 6 2 3 - - 0.0
16/07:00am 0.3 -2.9 -0.5 94 0.3 W 6 6 3 3 - - 0.0
16/06:50am 0.9 -1.8 0.0 94 0.3 SSE 4 6 2 3 - - 0.0
16/06:40am 0.6 -2.2 -0.3 94 0.3 NE 4 6 2 3 - - 0.0
16/06:30am -0.3 -2.8 -1.2 94 0.3 N 2 4 1 2 - - 0.0
16/06:20am 0.0 -2.5 -0.9 94 0.3 N 2 4 1 2 - - 0.0
16/06:10am 0.1 -2.4 -0.8 94 0.3 NE 2 4 1 2 - - 0.0
16/06:00am 0.3 -2.5 -0.6 94 0.4 SSW 4 4 2 2 - - 0.0
16/05:50am 1.0 -1.7 0.1 94 0.3 E 4 4 2 2 - - 0.0
16/05:40am 0.0 -2.9 -1.0 93 0.4 NE 4 4 2 2 - - 0.0
16/05:30am 0.2 -1.9 -0.8 93 0.4 CALM 0 2 0 1 - - 0.0
16/05:20am 0.5 -1.9 -0.4 94 0.3 SE 2 2 1 1 - - 0.0
16/05:10am 0.5 -1.9 -0.4 94 0.3 ESE 2 4 1 2 - - 0.0
16/05:00am 0.6 -2.6 -0.4 93 0.4 NE 6 7 3 4 - - 0.0
16/04:50am 1.3 -1.8 0.4 94 0.3 NE 6 6 3 3 - - 0.0
16/04:40am 1.5 -1.5 0.6 94 0.4 NE 6 6 3 3 - - 0.0
16/04:30am 1.7 -0.9 0.7 93 0.4 NE 4 6 2 3 - - 0.0
16/04:20am 1.6 -1.1 0.6 93 0.4 WNW 4 4 2 2 - - 0.0
16/04:10am 2.2 -0.3 1.3 94 0.4 WSW 4 4 2 2 - - 0.0
16/04:00am 2.3 -0.2 1.4 94 0.4 WSW 4 6 2 3 - - 0.0
16/03:50am 2.3 -0.2 1.4 94 0.4 S 4 7 2 4 - - 0.0
16/03:40am 2.2 0.0 1.3 94 0.4 NW 2 4 1 2 - - 0.0
16/03:30am 1.8 -0.8 0.8 93 0.4 E 4 6 2 3 - - 0.0
16/03:20am 1.7 -1.0 0.6 92 0.4 NE 4 6 2 3 - - 0.0
16/03:10am 1.9 -0.7 0.8 92 0.4 NE 4 6 2 3 - - 0.0
16/03:00am 2.0 -1.0 1.0 93 0.4 NE 6 7 3 4 - - 0.0
16/02:50am 2.2 -0.4 1.1 92 0.4 NNE 4 6 2 3 - - 0.0
16/02:40am 2.3 0.1 1.1 92 0.5 E 2 2 1 1 - - 0.0
16/02:30am 2.7 0.1 1.1 89 0.6 NE 4 4 2 2 - - 0.0
16/02:20am 3.2 1.1 1.7 90 0.6 ESE 2 4 1 2 - - 0.0
16/02:10am 3.5 1.4 1.9 89 0.7 E 2 4 1 2 - - 0.0
16/02:00am 4.1 1.7 2.1 87 0.8 NE 4 6 2 3 - - 0.0
16/01:50am 4.8 2.5 2.7 86 0.9 NE 4 6 2 3 - - 0.0
16/01:40am 3.9 1.6 2.5 91 0.6 NNE 4 6 2 3 - - 0.0
16/01:30am 4.1 1.7 2.2 87 0.8 N 4 6 2 3 - - 0.0
16/01:20am 5.6 3.7 2.9 83 1.2 N 2 4 1 2 - - 0.0
16/01:10am 5.6 2.9 2.8 82 1.2 NNE 6 7 3 4 - - 0.0
16/01:00am 5.5 2.9 3.2 85 1.0 ENE 6 6 3 3 - - 0.0
16/12:50am 6.1 3.5 3.3 82 1.2 NE 6 6 3 3 - - 0.0
16/12:40am 6.3 4.1 3.3 81 1.3 NE 4 6 2 3 - - 0.0
16/12:30am 6.3 4.1 3.3 81 1.3 NE 4 6 2 3 - - 0.0
16/12:20am 5.8 3.2 3.2 83 1.1 NE 6 7 3 4 - - 0.0
16/12:10am 5.7 3.1 3.3 84 1.0 NE 6 6 3 3 - - 0.0
16/12:00am 5.7 3.1 3.3 84 1.0 NE 6 6 3 3 - - 0.0
 
Date/Time
EST
Temp
°C
App
Temp
°C
Dew
Point
°C
Rel
Hum
%
Delta-T
°C
Wind Press
QNH
hPa
Press
MSL
hPa
Rain since
9am
mm
Dir  Spd
km/h
Gust
km/h
Spd
kts
Gust
kts
15/11:50pm 5.6 3.0 3.4 86 1.0 NNE 6 6 3 3 - - 0.0
15/11:40pm 6.8 5.0 3.7 80 1.4 WSW 2 2 1 1 - - 0.0
15/11:30pm 7.1 5.0 3.8 79 1.5 W 4 6 2 3 - - 0.0
15/11:20pm 7.9 5.8 3.8 75 1.8 NNW 4 6 2 3 - - 0.0
15/11:10pm 8.1 6.3 3.6 73 2.0 SE 2 4 1 2 - - 0.0
15/11:00pm 8.1 6.0 3.9 75 1.9 SE 4 7 2 4 - - 0.0
15/10:50pm 9.2 7.1 4.1 70 2.3 WSW 4 9 2 5 - - 0.0
15/10:40pm 9.7 6.7 3.9 67 2.7 WNW 9 11 5 6 - - 0.0
15/10:30pm 9.9 6.9 3.9 66 2.8 NW 9 11 5 6 - - 0.0
15/10:20pm 9.8 6.0 3.9 66 2.7 NW 13 17 7 9 - - 0.0
15/10:10pm 10.0 6.6 4.0 66 2.8 WNW 11 15 6 8 - - 0.0
15/10:00pm 10.4 6.6 4.1 65 2.9 WNW 13 17 7 9 - - 0.0
15/09:50pm 10.5 6.0 4.0 64 3.0 WNW 17 17 9 9 - - 0.0
15/09:40pm 10.5 6.4 4.1 64 3.0 WNW 15 17 8 9 - - 0.0
15/09:30pm 10.6 6.1 4.2 64 3.0 WNW 17 20 9 11 - - 0.0
15/09:20pm 10.8 6.3 4.2 64 3.1 WNW 17 19 9 10 - - 0.0
15/09:10pm 10.8 5.9 4.3 64 3.0 WNW 19 19 10 10 - - 0.0
15/09:00pm 10.9 5.8 4.3 64 3.1 WNW 20 22 11 12 - - 0.0
15/08:50pm 11.0 6.5 4.4 64 3.1 WNW 17 19 9 10 - - 0.0
15/08:40pm 11.2 7.5 4.4 63 3.2 WNW 13 17 7 9 - - 0.0
15/08:30pm 11.4 8.0 4.2 61 3.4 WNW 11 15 6 8 - - 0.0
15/08:20pm 11.5 8.1 4.1 60 3.5 NW 11 15 6 8 - - 0.0
15/08:10pm 11.6 7.8 4.1 60 3.5 WNW 13 17 7 9 - - 0.0
15/08:00pm 11.7 7.6 4.1 59 3.6 NW 15 19 8 10 - - 0.0
15/07:50pm 12.0 7.1 4.0 58 3.7 NW 19 24 10 13 - - 0.0
15/07:40pm 12.1 7.5 3.9 57 3.8 WNW 17 20 9 11 - - 0.0
15/07:30pm 12.2 7.1 3.9 57 3.9 WNW 20 28 11 15 - - 0.0
15/07:20pm 12.5 6.6 3.9 56 4.0 WNW 24 28 13 15 - - 0.0
15/07:10pm 12.5 6.6 3.8 55 4.1 WNW 24 28 13 15 - - 0.0
15/07:00pm 12.6 6.7 3.9 55 4.1 WNW 24 28 13 15 - - 0.0
15/06:50pm 12.7 6.0 3.9 55 4.1 WNW 28 32 15 17 - - 0.0
15/06:40pm 13.0 6.4 4.0 54 4.2 WNW 28 33 15 18 - - 0.0
15/06:30pm 13.1 6.8 3.9 53 4.3 WNW 26 28 14 15 - - 0.0
15/06:20pm 13.1 7.6 3.9 53 4.3 WNW 22 30 12 16 - - 0.0
15/06:10pm 13.2 8.3 4.0 53 4.3 WNW 19 22 10 12 - - 0.0
15/06:00pm 13.2 8.3 3.9 53 4.4 NW 19 22 10 12 - - 0.0
15/05:50pm 13.1 9.3 4.0 54 4.3 NNW 13 17 7 9 - - 0.0
15/05:40pm 13.2 9.8 4.1 54 4.3 N 11 13 6 7 - - 0.0
15/05:30pm 13.7 10.3 4.2 52 4.5 N 11 13 6 7 - - 0.0
15/05:20pm 14.3 10.9 4.1 50 4.9 N 11 13 6 7 - - 0.0
15/05:10pm 15.4 12.4 4.3 47 5.4 N 9 13 5 7 - - 0.0
15/05:00pm 15.8 12.4 3.9 45 5.7 NNW 11 15 6 8 - - 0.0
15/04:50pm 16.3 12.9 4.1 44 5.9 NNW 11 13 6 7 - - 0.0
15/04:40pm 16.5 12.7 3.7 42 6.2 NW 13 20 7 11 - - 0.0
15/04:30pm 16.6 12.3 3.3 41 6.4 NW 15 22 8 12 - - 0.0
15/04:20pm 16.6 11.6 3.6 42 6.3 NW 19 24 10 13 - - 0.0
15/04:10pm 16.8 11.6 3.6 41 6.4 NW 20 26 11 14 - - 0.0
15/04:00pm 17.1 11.1 3.3 39 6.6 NW 24 30 13 16 - - 0.0
15/03:50pm 17.0 11.4 3.4 40 6.5 NW 22 24 12 13 - - 0.0
15/03:40pm 17.3 12.1 3.5 39 6.7 WNW 20 28 11 15 - - 0.0
15/03:30pm 17.4 12.2 3.5 39 6.7 NW 20 26 11 14 - - 0.0
15/03:20pm 17.4 11.4 3.2 38 6.8 WNW 24 28 13 15 - - 0.0
15/03:10pm 17.5 10.8 3.6 39 6.7 WNW 28 33 15 18 - - 0.0
15/03:00pm 17.3 10.1 3.0 38 6.8 WNW 30 33 16 18 - - 0.0
15/02:50pm 17.4 10.7 3.5 39 6.7 WNW 28 32 15 17 - - 0.0
15/02:40pm 17.4 10.6 3.3 39 6.8 WNW 28 33 15 18 - - 0.0
15/02:30pm 17.4 10.3 3.4 39 6.7 WNW 30 35 16 19 - - 0.0
15/02:20pm 17.6 11.2 3.3 38 6.9 NW 26 30 14 16 - - 0.0
15/02:10pm 17.2 11.1 2.8 38 6.8 WNW 24 30 13 16 - - 0.0
15/02:00pm 16.9 10.8 2.5 38 6.8 NW 24 26 13 14 - - 0.0
15/01:50pm 16.7 10.2 2.6 38 6.7 NW 26 28 14 15 - - 0.0
15/01:40pm 17.5 11.5 3.2 38 6.9 WNW 24 30 13 16 - - 0.0
15/01:30pm 17.5 11.3 2.0 35 7.3 NW 24 32 13 17 - - 0.0
15/01:20pm 17.1 11.3 2.1 36 7.0 WNW 22 26 12 14 - - 0.0
15/01:10pm 16.8 10.7 2.5 38 6.7 WNW 24 30 13 16 - - 0.0
15/01:00pm 17.0 10.5 2.6 38 6.8 NW 26 30 14 16 - - 0.0
15/12:50pm 16.9 10.9 3.1 39 6.6 NW 24 28 13 15 - - 0.0
15/12:40pm 17.2 11.5 3.1 39 6.7 WNW 22 24 12 13 - - 0.0
15/12:30pm 17.7 11.6 3.0 37 7.0 WNW 24 28 13 15 - - 0.0
15/12:20pm 17.4 12.0 2.6 37 7.0 WNW 20 28 11 15 - - 0.0
15/12:10pm 17.5 11.4 2.5 36 7.1 WNW 24 32 13 17 - - 0.0
15/12:00pm 17.9 12.5 2.7 36 7.2 W 20 28 11 15 - - 0.0
15/11:50am 17.8 13.6 3.6 39 6.9 W 15 20 8 11 - - 0.0
15/11:40am 17.3 11.7 3.7 40 6.6 W 22 26 12 14 - - 0.0
15/11:30am 17.3 11.6 3.1 38 6.8 WNW 22 24 12 13 - - 0.0
15/11:20am 17.2 11.7 2.1 36 7.1 W 20 22 11 12 - - 0.0
15/11:10am 16.7 10.2 2.4 38 6.7 W 26 32 14 17 - - 0.0
15/11:00am 16.5 10.0 2.8 40 6.5 W 26 32 14 17 - - 0.0
15/10:50am 16.6 10.0 2.3 38 6.7 W 26 32 14 17 - - 0.0
15/10:40am 16.4 10.7 2.6 39 6.5 W 22 24 12 13 - - 0.0
15/10:30am 15.6 10.3 3.0 43 5.9 W 20 26 11 14 - - 0.0
15/10:20am 15.5 10.1 2.4 41 6.1 WNW 20 26 11 14 - - 0.0
15/10:10am 15.2 9.5 2.8 43 5.8 W 22 28 12 15 - - 0.0
15/10:00am 15.8 10.5 2.9 42 6.1 W 20 28 11 15 - - 0.0
15/09:50am 15.5 9.9 3.4 44 5.7 W 22 28 12 15 - - 0.0
15/09:40am 15.3 9.7 3.5 45 5.6 W 22 28 12 15 - - 0.0
15/09:30am 14.9 9.4 3.8 47 5.3 W 22 28 12 15 - - 0.0
15/09:20am 14.6 9.4 3.5 47 5.2 W 20 28 11 15 - - 0.0
15/09:10am 14.3 8.4 4.0 50 4.9 W 24 26 13 14 - - 0.0
15/09:00am 14.4 9.5 4.3 50 4.8 W 19 24 10 13 - - 0.0
15/08:50am 14.0 9.4 3.7 50 4.9 W 17 20 9 11 - - 0.0
15/08:40am 13.7 8.8 4.2 52 4.5 WNW 19 22 10 12 - - 0.0
15/08:30am 13.6 8.5 4.1 52 4.5 WNW 20 24 11 13 - - 0.0
15/08:20am 13.5 8.6 4.1 53 4.5 WNW 19 22 10 12 - - 0.0
15/08:10am 13.4 10.7 5.8 60 3.7 WNW 9 15 5 8 - - 0.0
15/08:00am 12.0 10.4 4.5 60 3.5 NNW 2 6 1 3 - - 0.0
15/07:50am 10.0 8.2 5.3 72 2.2 NNE 4 6 2 3 - - 0.0
15/07:40am 9.8 8.4 5.3 73 2.1 SE 2 4 1 2 - - 0.0
15/07:30am 9.0 7.5 4.9 75 1.9 S 2 2 1 1 - - 0.0
15/07:20am 8.0 6.3 4.1 76 1.8 SW 2 4 1 2 - - 0.0
15/07:10am 7.4 5.6 3.5 76 1.7 NNE 2 2 1 1 - - 0.0
15/07:00am 6.1 4.2 3.1 81 1.3 NE 2 2 1 1 - - 0.0
15/06:50am 5.1 3.1 2.4 83 1.1 N 2 4 1 2 - - 0.0
15/06:40am 5.1 2.7 2.2 81 1.2 S 4 7 2 4 - - 0.0
15/06:30am 5.7 3.4 2.7 81 1.3 S 4 4 2 2 - - 0.0
15/06:20am 6.5 4.2 2.9 78 1.6 SW 4 6 2 3 - - 0.0
15/06:10am 7.4 5.2 3.1 74 1.9 S 4 6 2 3 - - 0.0
15/06:00am 8.1 5.3 3.0 70 2.3 W 7 13 4 7 - - 0.0
15/05:50am 8.8 4.8 2.8 66 2.7 NW 13 15 7 8 - - 0.0
15/05:40am 8.7 4.7 2.9 67 2.6 NW 13 15 7 8 - - 0.0
15/05:30am 8.8 4.8 3.1 67 2.5 NW 13 15 7 8 - - 0.0
15/05:20am 8.8 4.8 3.0 67 2.6 NW 13 15 7 8 - - 0.0
15/05:10am 8.2 4.3 3.3 71 2.2 NW 13 15 7 8 - - 0.0
15/05:00am 8.5 4.2 3.4 70 2.3 NW 15 15 8 8 - - 0.0
15/04:50am 8.9 4.7 3.7 70 2.4 NW 15 17 8 9 - - 0.0
15/04:40am 9.0 4.8 3.7 69 2.4 NW 15 17 8 9 - - 0.0
15/04:30am 9.0 5.2 3.7 69 2.4 NW 13 15 7 8 - - 0.0
15/04:20am 9.1 5.3 3.8 69 2.4 NW 13 13 7 7 - - 0.0
15/04:10am 9.1 5.7 3.9 70 2.4 NW 11 13 6 7 - - 0.0
15/04:00am 9.1 5.3 3.8 69 2.4 NW 13 15 7 8 - - 0.0
15/03:50am 8.7 4.9 3.8 71 2.2 NW 13 15 7 8 - - 0.0
15/03:40am 8.5 4.3 3.8 72 2.1 NW 15 15 8 8 - - 0.0
15/03:30am 8.7 4.5 3.8 71 2.2 NW 15 15 8 8 - - 0.0
15/03:20am 8.9 4.7 3.9 71 2.3 NW 15 15 8 8 - - 0.0
15/03:10am 9.0 5.2 3.7 69 2.4 NW 13 15 7 8 - - 0.0
15/03:00am 8.4 4.5 3.4 71 2.2 NW 13 15 7 8 - - 0.0
15/02:50am 7.9 4.4 3.4 73 2.0 NW 11 13 6 7 - - 0.0
15/02:40am 8.4 4.9 3.7 72 2.1 NW 11 11 6 6 - - 0.0
15/02:30am 9.7 6.6 3.7 66 2.7 NW 9 11 5 6 - - 0.0
15/02:20am 10.3 6.8 3.5 62 3.1 NW 11 11 6 6 - - 0.0
15/02:10am 10.8 7.3 3.5 60 3.3 WNW 11 13 6 7 - - 0.0
15/02:00am 11.0 7.5 3.3 59 3.5 NW 11 13 6 7 - - 0.0
15/01:50am 11.0 6.7 3.4 59 3.5 NW 15 19 8 10 - - 0.0
15/01:40am 10.5 6.2 3.4 61 3.2 NW 15 17 8 9 - - 0.0
15/01:30am 10.5 7.0 3.4 61 3.2 NW 11 17 6 9 - - 0.0
15/01:20am 10.6 7.5 3.4 61 3.3 NW 9 15 5 8 - - 0.0
15/01:10am 10.9 7.0 3.6 60 3.4 NW 13 17 7 9 - - 0.0
15/01:00am 11.3 7.8 3.6 59 3.6 NW 11 15 6 8 - - 0.0
15/12:50am 11.3 6.7 3.6 59 3.6 NW 17 20 9 11 - - 0.0
15/12:40am 11.0 5.8 3.8 61 3.3 NW 20 22 11 12 - - 0.0
15/12:30am 11.0 6.5 4.0 62 3.3 WNW 17 20 9 11 - - 0.0
15/12:20am 11.3 6.8 4.2 61 3.3 NW 17 20 9 11 - - 0.0
15/12:10am 11.3 6.4 4.1 61 3.4 NW 19 20 10 11 - - 0.0
15/12:00am 11.3 6.2 4.1 61 3.4 WNW 20 20 11 11 - - 0.0
 
Date/Time
EST
Temp
°C
App
Temp
°C
Dew
Point
°C
Rel
Hum
%
Delta-T
°C
Wind Press
QNH
hPa
Press
MSL
hPa
Rain since
9am
mm
Dir  Spd
km/h
Gust
km/h
Spd
kts
Gust
kts
14/11:50pm 10.9 5.8 3.9 62 3.2 WNW 20 22 11 12 - - 0.0
14/11:40pm 9.8 4.9 4.3 68 2.5 NW 19 19 10 10 - - 0.0
14/11:30pm 10.8 6.8 4.7 66 2.9 WNW 15 17 8 9 - - 0.0
14/11:20pm 11.4 8.4 4.1 61 3.4 WNW 9 15 5 8 - - 0.0
14/11:10pm 11.4 9.0 4.2 61 3.4 NW 6 7 3 4 - - 0.0
14/11:00pm 11.3 7.2 4.5 63 3.2 WNW 15 20 8 11 - - 0.0
14/10:50pm 10.5 6.5 4.8 68 2.7 WNW 15 19 8 10 - - 0.0
14/10:40pm 10.3 6.2 4.6 68 2.7 NW 15 17 8 9 - - 0.0
14/10:30pm 9.2 5.1 4.4 72 2.2 NW 15 19 8 10 - - 0.0
14/10:20pm 10.0 8.0 4.3 67 2.6 N 4 6 2 3 - - 0.0
14/10:10pm 11.0 8.5 4.8 65 2.9 NW 7 11 4 6 - - 0.0
14/10:00pm 11.5 8.6 4.6 62 3.3 WNW 9 11 5 6 - - 0.0
14/09:50pm 12.1 8.8 4.6 60 3.6 W 11 13 6 7 - - 0.0
14/09:40pm 12.2 8.5 4.5 59 3.6 W 13 15 7 8 - - 0.0
14/09:30pm 12.6 8.5 4.5 58 3.9 W 15 19 8 10 - - 0.0
14/09:20pm 13.1 8.7 4.5 56 4.1 W 17 20 9 11 - - 0.0
14/09:10pm 13.3 8.3 4.4 55 4.2 W 20 24 11 13 - - 0.0
14/09:00pm 13.3 8.2 4.3 54 4.3 WNW 20 24 11 13 - - 0.0
14/08:50pm 13.3 7.8 4.0 53 4.4 WNW 22 26 12 14 - - 0.0
14/08:40pm 12.9 7.9 3.8 54 4.3 WNW 19 24 10 13 - - 0.0
14/08:30pm 12.3 8.0 3.4 54 4.1 WNW 15 17 8 9 - - 0.0
14/08:20pm 11.5 6.8 3.1 56 3.8 WNW 17 19 9 10 - - 0.0
14/08:10pm 10.2 5.8 2.8 60 3.3 NW 15 19 8 10 - - 0.0
14/08:00pm 9.4 5.8 2.9 64 2.9 NNW 11 15 6 8 - - 0.0
14/07:50pm 9.6 6.8 3.0 63 3.0 N 7 11 4 6 - - 0.0
14/07:40pm 9.8 7.2 3.0 62 3.1 NNE 6 7 3 4 - - 0.0
14/07:30pm 9.8 7.1 2.9 62 3.1 NE 6 6 3 3 - - 0.0
14/07:20pm 10.0 7.8 3.1 62 3.1 N 4 6 2 3 - - 0.0
14/07:10pm 10.5 8.3 3.1 60 3.4 NNE 4 6 2 3 - - 0.0
14/07:00pm 10.9 8.7 3.1 58 3.5 N 4 6 2 3 - - 0.0
14/06:50pm 11.4 9.2 3.1 56 3.8 N 4 4 2 2 - - 0.0
14/06:40pm 11.9 9.6 3.0 54 4.1 NNW 4 4 2 2 - - 0.0
14/06:30pm 12.7 10.1 3.1 52 4.4 NW 6 6 3 3 - - 0.0
14/06:20pm 13.5 10.8 2.9 48 4.9 NW 6 7 3 4 - - 0.0
14/06:10pm 13.9 11.2 2.6 46 5.2 WNW 6 7 3 4 - - 0.0
14/06:00pm 14.0 11.1 2.7 46 5.2 NW 7 9 4 5 - - 0.0
14/05:50pm 14.3 11.0 2.7 45 5.4 WNW 9 13 5 7 - - 0.0
14/05:40pm 14.6 11.4 2.8 45 5.5 WNW 9 13 5 7 - - 0.0
14/05:30pm 15.1 11.5 3.0 44 5.7 WNW 11 13 6 7 - - 0.0
14/05:20pm 15.7 11.3 2.8 42 6.1 WNW 15 19 8 10 - - 0.0
14/05:10pm 16.2 11.4 2.8 40 6.3 WNW 17 24 9 13 - - 0.0
14/05:00pm 16.5 10.3 2.4 38 6.6 WNW 24 26 13 14 - - 0.0
14/04:50pm 16.8 11.4 2.5 38 6.7 WNW 20 30 11 16 - - 0.0
14/04:40pm 16.9 11.5 2.3 37 6.9 WNW 20 26 11 14 - - 0.0
14/04:30pm 16.8 11.4 2.2 37 6.8 WNW 20 28 11 15 - - 0.0
14/04:20pm 16.4 11.2 2.6 39 6.5 W 19 24 10 13 - - 0.0
14/04:10pm 16.7 11.3 2.7 39 6.6 W 20 24 11 13 - - 0.0
14/04:00pm 16.8 10.6 2.0 37 6.9 WNW 24 28 13 15 - - 0.0
14/03:50pm 17.1 10.9 2.4 37 6.9 W 24 30 13 16 - - 0.0
14/03:40pm 18.2 12.1 2.7 35 7.4 W 24 32 13 17 - - 0.0
14/03:30pm 17.8 10.8 2.0 34 7.4 WNW 28 35 15 19 - - 0.0
14/03:20pm 17.3 10.3 1.7 35 7.3 WNW 28 32 15 17 - - 0.0
14/03:10pm 17.8 9.9 1.2 32 7.7 WNW 32 37 17 20 - - 0.0
14/03:00pm 18.4 10.9 1.3 31 8.0 W 30 37 16 20 - - 0.0
14/02:50pm 18.1 10.3 1.4 32 7.8 WNW 32 35 17 19 - - 0.0
14/02:40pm 18.0 10.8 0.5 30 8.0 WNW 28 35 15 19 - - 0.0
14/02:30pm 18.3 11.3 1.7 33 7.8 NW 28 35 15 19 - - 0.0
14/02:20pm 17.9 10.4 1.3 32 7.7 WNW 30 35 16 19 - - 0.0
14/02:10pm 18.8 11.8 2.0 32 8.0 NW 28 39 15 21 - - 0.0
14/02:00pm 19.0 12.5 2.4 33 7.9 WNW 26 37 14 20 - - 0.0
14/01:50pm 19.2 13.0 2.1 32 8.1 WNW 24 32 13 17 - - 0.0
14/01:40pm 18.6 12.0 2.2 33 7.8 WNW 26 33 14 18 - - 0.0
14/01:30pm 17.6 10.9 1.6 34 7.4 WNW 26 30 14 16 - - 0.0
14/01:20pm 17.6 11.7 2.0 35 7.3 WNW 22 26 12 14 - - 0.0
14/01:10pm 17.6 10.6 2.0 35 7.3 WNW 28 32 15 17 - - 0.0
14/01:00pm 17.7 11.5 2.1 35 7.3 WNW 24 28 13 15 - - 0.0
14/12:50pm 17.7 10.2 1.2 33 7.6 WNW 30 35 16 19 - - 0.0
14/12:40pm 18.2 10.4 1.8 33 7.7 WNW 32 41 17 22 - - 0.0
14/12:30pm 19.0 11.1 1.3 30 8.3 WNW 32 39 17 21 - - 0.0
14/12:20pm 19.3 11.3 1.4 30 8.4 WNW 33 39 18 21 - - 0.0
14/12:10pm 19.4 12.4 2.0 31 8.3 WNW 28 33 15 18 - - 0.0
14/12:00pm 19.1 11.2 2.2 32 8.1 W 33 39 18 21 - - 0.0
14/11:50am 19.1 10.7 1.7 31 8.2 WNW 35 43 19 23 - - 0.0
14/11:40am 19.0 10.2 1.5 31 8.2 W 37 43 20 23 - - 0.0
14/11:30am 18.9 10.5 1.8 32 8.1 WNW 35 43 19 23 - - 0.0
14/11:20am 18.4 8.8 1.1 31 8.0 WNW 41 46 22 25 - - 0.0
14/11:10am 18.0 9.1 0.6 31 8.0 WNW 37 48 20 26 - - 0.0
14/11:00am 18.1 10.7 1.6 33 7.7 WNW 30 37 16 20 - - 0.0
14/10:50am 18.3 10.4 2.0 33 7.7 WNW 33 39 18 21 - - 0.0
14/10:40am 18.3 10.9 1.7 33 7.8 WNW 30 39 16 21 - - 0.0
14/10:30am 17.6 9.1 1.0 32 7.6 WNW 35 41 19 22 - - 0.0
14/10:20am 17.8 9.7 1.3 33 7.6 WNW 33 39 18 21 - - 0.0
14/10:10am 17.5 9.7 1.6 34 7.4 WNW 32 39 17 21 - - 0.0
14/10:00am 16.9 7.7 1.4 35 7.1 WNW 39 44 21 24 - - 0.0
14/09:50am 16.3 7.8 0.7 34 7.1 WNW 35 46 19 25 - - 0.0
14/09:40am 16.1 7.8 2.1 39 6.5 W 35 43 19 23 - - 0.0
14/09:30am 15.4 7.0 1.4 38 6.4 W 35 43 19 23 - - 0.0
14/09:20am 15.3 8.2 1.2 38 6.4 W 28 39 15 21 - - 0.0
14/09:10am 13.9 6.8 1.3 42 5.7 WNW 28 33 15 18 - - 0.0
14/09:00am 13.2 6.8 1.2 44 5.3 WNW 24 30 13 16 - - 0.0
14/08:50am 12.8 6.9 1.4 46 5.1 WNW 22 26 12 14 - - 0.0
14/08:40am 12.7 6.7 1.3 45 5.1 NW 22 28 12 15 - - 0.0
14/08:30am 12.6 6.2 1.2 45 5.0 WNW 24 30 13 16 - - 0.0
14/08:20am 13.0 6.3 1.2 44 5.2 WNW 26 35 14 19 - - 0.0
14/07:30am 11.8 6.7 0.7 46 4.8 WNW 17 22 9 12 - - 0.0
14/07:20am 11.9 6.8 0.6 46 4.9 WNW 17 22 9 12 - - 0.0
14/07:10am 12.2 6.5 0.5 44 5.1 WNW 20 26 11 14 - - 0.0
14/07:00am 12.1 6.6 0.5 45 5.0 WNW 19 22 10 12 - - 0.0
14/06:50am 12.0 6.4 0.1 44 5.1 WNW 19 26 10 14 - - 0.0
14/06:40am 12.1 6.4 0.3 44 5.1 WNW 20 32 11 17 - - 0.0
14/06:30am 12.2 6.4 0.2 43 5.2 NW 20 28 11 15 - - 0.0
14/06:20am 12.5 6.0 0.2 43 5.3 WNW 24 30 13 16 - - 0.0
14/06:10am 12.5 5.6 -0.1 42 5.4 WNW 26 32 14 17 - - 0.0
14/06:00am 12.4 6.3 0.1 43 5.3 WNW 22 24 12 13 - - 0.0
14/05:50am 12.5 6.3 -0.2 41 5.4 NW 22 30 12 16 - - 0.0
14/05:40am 12.2 6.4 0.0 43 5.2 WNW 20 22 11 12 - - 0.0
14/05:30am 12.0 7.2 0.1 44 5.1 WNW 15 22 8 12 - - 0.0
14/05:20am 12.0 6.8 0.2 44 5.1 WNW 17 20 9 11 - - 0.0
14/05:10am 12.1 6.9 0.3 44 5.1 WNW 17 24 9 13 - - 0.0
14/05:00am 12.1 7.3 0.0 43 5.2 WNW 15 19 8 10 - - 0.0
14/04:50am 12.1 7.3 0.0 43 5.2 WNW 15 20 8 11 - - 0.0
14/04:40am 12.1 7.3 0.2 44 5.1 WNW 15 19 8 10 - - 0.0
14/04:30am 12.1 7.3 0.3 44 5.1 WNW 15 19 8 10 - - 0.0
14/04:20am 12.0 7.6 0.1 44 5.1 WNW 13 17 7 9 - - 0.0
14/04:10am 12.1 7.3 0.3 44 5.1 WNW 15 17 8 9 - - 0.0
14/04:00am 12.1 6.9 0.4 44 5.1 WNW 17 19 9 10 - - 0.0
14/03:50am 12.3 6.8 0.6 44 5.1 WNW 19 22 10 12 - - 0.0
14/03:40am 12.5 6.8 0.5 43 5.2 WNW 20 24 11 13 - - 0.0
14/03:30am 12.4 6.9 0.3 43 5.2 WNW 19 24 10 13 - - 0.0
14/03:20am 12.3 7.2 0.5 44 5.1 WNW 17 22 9 12 - - 0.0
14/03:10am 12.1 8.1 0.4 44 5.1 WNW 11 17 6 9 - - 0.0
14/03:00am 12.1 7.8 0.7 45 5.0 NW 13 19 7 10 - - 0.0
14/02:50am 11.9 7.6 1.0 47 4.8 NW 13 15 7 8 - - 0.0
14/02:40am 11.7 7.7 0.6 46 4.8 NW 11 15 6 8 - - 0.0
14/02:30am 11.4 8.3 1.4 50 4.4 NNW 7 11 4 6 - - 0.0
14/02:20am 11.6 8.5 1.2 49 4.6 NNW 7 9 4 5 - - 0.0
14/02:10am 11.8 8.9 1.2 48 4.7 NNW 6 9 3 5 - - 0.0
14/02:00am 12.2 9.1 1.2 47 4.9 NNW 7 11 4 6 - - 0.0
14/01:50am 12.4 9.3 1.6 47 4.8 NW 7 9 4 5 - - 0.0
14/01:40am 12.6 9.5 1.3 46 5.0 NW 7 11 4 6 - - 0.0
14/01:30am 12.6 9.7 1.6 47 4.9 NW 6 7 3 4 - - 0.0
14/01:20am 12.8 9.9 1.5 46 5.0 NNW 6 7 3 4 - - 0.0
14/01:10am 12.8 9.8 1.1 45 5.2 NW 6 9 3 5 - - 0.0
14/01:00am 12.8 9.8 1.0 44 5.2 WNW 6 7 3 4 - - 0.0
14/12:50am 12.9 9.4 1.0 44 5.3 NW 9 9 5 5 - - 0.0
14/12:40am 12.7 8.8 1.1 45 5.1 NW 11 13 6 7 - - 0.0
14/12:30am 12.1 8.2 1.1 47 4.8 NW 11 13 6 7 - - 0.0
14/12:20am 10.5 6.6 1.1 52 4.1 WNW 11 15 6 8 - - 0.0

Other formats

Comma delimited format used in spreadsheet applications
http://www.bom.gov.au/fwo/IDN60801/IDN60801.99764.axf

JavaScript Object Notation format (JSON) in row-major order
http://www.bom.gov.au/fwo/IDN60801/IDN60801.99764.json

Data quality

Most of these data are generated automatically and are frequently updated. Quality checks on data are not normally performed. It is possible for incorrect values to appear. Refer to information at About Latest Weather Observations and please check the disclaimer before using these data.